sensor_id;sensor_type;location;lat;lon;timestamp;temperature;humidity
20384;DHT22;46458;50.966;7.002;2022-10-03T00:02:17;12.10;99.90
20384;DHT22;46458;50.966;7.002;2022-10-03T00:04:59;11.60;99.90
20384;DHT22;46458;50.966;7.002;2022-10-03T00:07:51;12.00;99.90
20384;DHT22;46458;50.966;7.002;2022-10-03T00:10:32;12.00;99.90
20384;DHT22;46458;50.966;7.002;2022-10-03T00:13:09;12.00;99.90
20384;DHT22;46458;50.966;7.002;2022-10-03T00:15:47;12.20;99.90
20384;DHT22;46458;50.966;7.002;2022-10-03T00:18:33;12.00;99.90
20384;DHT22;46458;50.966;7.002;2022-10-03T00:21:17;12.00;99.90
20384;DHT22;46458;50.966;7.002;2022-10-03T00:23:54;11.90;99.90
20384;DHT22;46458;50.966;7.002;2022-10-03T00:26:32;11.90;99.90
20384;DHT22;46458;50.966;7.002;2022-10-03T00:29:18;11.80;99.90
20384;DHT22;46458;50.966;7.002;2022-10-03T00:31:55;11.70;99.90
20384;DHT22;46458;50.966;7.002;2022-10-03T00:34:37;11.80;99.90
20384;DHT22;46458;50.966;7.002;2022-10-03T00:37:18;12.10;99.90
20384;DHT22;46458;50.966;7.002;2022-10-03T00:40:05;11.80;99.90
20384;DHT22;46458;50.966;7.002;2022-10-03T00:46:04;11.70;99.90
20384;DHT22;46458;50.966;7.002;2022-10-03T00:51:55;11.50;99.90
20384;DHT22;46458;50.966;7.002;2022-10-03T00:54:44;11.80;99.90
20384;DHT22;46458;50.966;7.002;2022-10-03T00:57:34;11.60;99.90
20384;DHT22;46458;50.966;7.002;2022-10-03T01:00:15;11.60;99.90
20384;DHT22;46458;50.966;7.002;2022-10-03T01:03:07;11.80;99.90
20384;DHT22;46458;50.966;7.002;2022-10-03T01:05:48;11.50;99.90
20384;DHT22;46458;50.966;7.002;2022-10-03T01:09:01;11.70;99.90
20384;DHT22;46458;50.966;7.002;2022-10-03T01:11:49;11.50;99.90
20384;DHT22;46458;50.966;7.002;2022-10-03T01:14:45;11.50;99.90
20384;DHT22;46458;50.966;7.002;2022-10-03T01:17:27;11.50;99.90
20384;DHT22;46458;50.966;7.002;2022-10-03T01:20:17;11.50;99.90
20384;DHT22;46458;50.966;7.002;2022-10-03T01:23:14;11.30;99.90
20384;DHT22;46458;50.966;7.002;2022-10-03T01:25:55;11.40;99.90
20384;DHT22;46458;50.966;7.002;2022-10-03T01:28:42;11.50;99.90
20384;DHT22;46458;50.966;7.002;2022-10-03T01:31:32;11.30;99.90
20384;DHT22;46458;50.966;7.002;2022-10-03T01:34:06;11.40;99.90
20384;DHT22;46458;50.966;7.002;2022-10-03T01:36:41;11.30;99.90
20384;DHT22;46458;50.966;7.002;2022-10-03T01:39:22;11.30;99.90
20384;DHT22;46458;50.966;7.002;2022-10-03T01:42:00;11.40;99.90
20384;DHT22;46458;50.966;7.002;2022-10-03T01:44:44;11.30;99.90
20384;DHT22;46458;50.966;7.002;2022-10-03T01:47:26;11.10;99.90
20384;DHT22;46458;50.966;7.002;2022-10-03T01:50:06;11.20;99.90
20384;DHT22;46458;50.966;7.002;2022-10-03T01:52:47;11.20;99.90
20384;DHT22;46458;50.966;7.002;2022-10-03T01:55:22;11.40;99.90
20384;DHT22;46458;50.966;7.002;2022-10-03T01:58:00;11.30;99.90
20384;DHT22;46458;50.966;7.002;2022-10-03T02:00:43;11.10;99.90
20384;DHT22;46458;50.966;7.002;2022-10-03T02:03:19;11.10;99.90
20384;DHT22;46458;50.966;7.002;2022-10-03T02:05:56;11.10;99.90
20384;DHT22;46458;50.966;7.002;2022-10-03T02:08:33;11.20;99.90
20384;DHT22;46458;50.966;7.002;2022-10-03T02:11:04;11.00;99.90
20384;DHT22;46458;50.966;7.002;2022-10-03T02:13:42;11.00;99.90
20384;DHT22;46458;50.966;7.002;2022-10-03T02:16:22;11.10;99.90
20384;DHT22;46458;50.966;7.002;2022-10-03T02:19:00;10.90;99.90
20384;DHT22;46458;50.966;7.002;2022-10-03T02:21:33;10.80;99.90
20384;DHT22;46458;50.966;7.002;2022-10-03T02:24:23;10.80;99.90
20384;DHT22;46458;50.966;7.002;2022-10-03T02:27:19;10.50;99.90
20384;DHT22;46458;50.966;7.002;2022-10-03T02:30:18;10.60;99.90
20384;DHT22;46458;50.966;7.002;2022-10-03T02:33:33;10.60;99.90
20384;DHT22;46458;50.966;7.002;2022-10-03T02:39:24;10.50;99.90
20384;DHT22;46458;50.966;7.002;2022-10-03T02:54:40;10.30;99.90
20384;DHT22;46458;50.966;7.002;2022-10-03T02:57:36;10.40;99.90
20384;DHT22;46458;50.966;7.002;2022-10-03T03:00:11;10.40;99.90
20384;DHT22;46458;50.966;7.002;2022-10-03T03:09:24;10.20;99.90
20384;DHT22;46458;50.966;7.002;2022-10-03T03:12:17;10.50;99.90
20384;DHT22;46458;50.966;7.002;2022-10-03T03:17:49;10.20;99.90
20384;DHT22;46458;50.966;7.002;2022-10-03T03:20:40;10.60;99.90
20384;DHT22;46458;50.966;7.002;2022-10-03T03:23:30;10.20;99.90
20384;DHT22;46458;50.966;7.002;2022-10-03T03:29:12;10.10;99.90
20384;DHT22;46458;50.966;7.002;2022-10-03T03:31:50;10.30;99.90
20384;DHT22;46458;50.966;7.002;2022-10-03T03:34:28;11.00;99.90
20384;DHT22;46458;50.966;7.002;2022-10-03T03:37:06;10.30;99.90
20384;DHT22;46458;50.966;7.002;2022-10-03T03:40:02;10.70;99.90
20384;DHT22;46458;50.966;7.002;2022-10-03T03:42:56;10.30;99.90
20384;DHT22;46458;50.966;7.002;2022-10-03T03:45:41;10.20;99.90
20384;DHT22;46458;50.966;7.002;2022-10-03T03:51:09;9.90;99.90
20384;DHT22;46458;50.966;7.002;2022-10-03T03:54:17;10.20;99.90
20384;DHT22;46458;50.966;7.002;2022-10-03T03:57:15;10.00;99.90
20384;DHT22;46458;50.966;7.002;2022-10-03T04:03:08;10.20;99.90
20384;DHT22;46458;50.966;7.002;2022-10-03T04:09:26;9.90;99.90
20384;DHT22;46458;50.966;7.002;2022-10-03T04:12:03;9.90;99.90
20384;DHT22;46458;50.966;7.002;2022-10-03T04:17:46;10.00;99.90
20384;DHT22;46458;50.966;7.002;2022-10-03T04:21:00;10.00;99.90
20384;DHT22;46458;50.966;7.002;2022-10-03T04:23:58;10.00;99.90
20384;DHT22;46458;50.966;7.002;2022-10-03T04:26:44;10.10;99.90
20384;DHT22;46458;50.966;7.002;2022-10-03T04:29:43;9.90;99.90
20384;DHT22;46458;50.966;7.002;2022-10-03T04:32:40;10.20;99.90
20384;DHT22;46458;50.966;7.002;2022-10-03T04:38:44;10.20;99.90
20384;DHT22;46458;50.966;7.002;2022-10-03T04:41:26;10.40;99.90
20384;DHT22;46458;50.966;7.002;2022-10-03T04:44:07;10.40;99.90
20384;DHT22;46458;50.966;7.002;2022-10-03T04:46:42;10.30;99.90
20384;DHT22;46458;50.966;7.002;2022-10-03T04:49:20;10.70;99.90
20384;DHT22;46458;50.966;7.002;2022-10-03T04:51:57;10.50;99.90
20384;DHT22;46458;50.966;7.002;2022-10-03T04:54:40;10.30;99.90
20384;DHT22;46458;50.966;7.002;2022-10-03T04:57:27;10.20;99.90
20384;DHT22;46458;50.966;7.002;2022-10-03T05:00:05;10.20;99.90
20384;DHT22;46458;50.966;7.002;2022-10-03T05:02:46;10.50;99.90
20384;DHT22;46458;50.966;7.002;2022-10-03T05:05:33;10.30;99.90
20384;DHT22;46458;50.966;7.002;2022-10-03T05:08:18;10.20;99.90
20384;DHT22;46458;50.966;7.002;2022-10-03T05:11:14;10.10;99.90
20384;DHT22;46458;50.966;7.002;2022-10-03T05:14:03;10.30;99.90
20384;DHT22;46458;50.966;7.002;2022-10-03T05:16:39;10.00;99.90
20384;DHT22;46458;50.966;7.002;2022-10-03T05:19:43;10.00;99.90
20384;DHT22;46458;50.966;7.002;2022-10-03T05:22:22;10.10;99.90
20384;DHT22;46458;50.966;7.002;2022-10-03T05:25:00;9.70;99.90
20384;DHT22;46458;50.966;7.002;2022-10-03T05:27:39;10.00;99.90
20384;DHT22;46458;50.966;7.002;2022-10-03T05:30:18;9.90;99.90
20384;DHT22;46458;50.966;7.002;2022-10-03T05:32:52;10.20;99.90
20384;DHT22;46458;50.966;7.002;2022-10-03T05:35:30;10.10;99.90
20384;DHT22;46458;50.966;7.002;2022-10-03T05:38:25;10.40;99.90
20384;DHT22;46458;50.966;7.002;2022-10-03T05:41:02;10.00;99.90
20384;DHT22;46458;50.966;7.002;2022-10-03T05:43:44;9.90;99.90
20384;DHT22;46458;50.966;7.002;2022-10-03T05:46:21;10.10;99.90
20384;DHT22;46458;50.966;7.002;2022-10-03T05:49:02;10.10;99.90
20384;DHT22;46458;50.966;7.002;2022-10-03T05:54:52;10.60;99.90
20384;DHT22;46458;50.966;7.002;2022-10-03T05:57:46;10.20;99.90
20384;DHT22;46458;50.966;7.002;2022-10-03T06:00:25;10.30;99.90
20384;DHT22;46458;50.966;7.002;2022-10-03T06:03:30;10.20;99.90
20384;DHT22;46458;50.966;7.002;2022-10-03T06:06:12;10.30;99.90
20384;DHT22;46458;50.966;7.002;2022-10-03T06:09:17;10.10;99.90
20384;DHT22;46458;50.966;7.002;2022-10-03T06:11:58;10.60;99.90
20384;DHT22;46458;50.966;7.002;2022-10-03T06:14:33;10.40;99.90
20384;DHT22;46458;50.966;7.002;2022-10-03T06:17:31;10.20;99.90
20384;DHT22;46458;50.966;7.002;2022-10-03T06:20:22;10.10;99.90
20384;DHT22;46458;50.966;7.002;2022-10-03T06:23:19;10.10;99.90
20384;DHT22;46458;50.966;7.002;2022-10-03T06:32:20;10.10;99.90
20384;DHT22;46458;50.966;7.002;2022-10-03T06:35:19;10.00;99.90
20384;DHT22;46458;50.966;7.002;2022-10-03T06:44:09;10.10;99.90
20384;DHT22;46458;50.966;7.002;2022-10-03T06:47:16;10.20;99.90
20384;DHT22;46458;50.966;7.002;2022-10-03T06:50:20;10.50;99.90
20384;DHT22;46458;50.966;7.002;2022-10-03T06:53:09;10.30;99.90
20384;DHT22;46458;50.966;7.002;2022-10-03T06:59:04;10.30;99.90
20384;DHT22;46458;50.966;7.002;2022-10-03T07:01:54;10.50;99.90
20384;DHT22;46458;50.966;7.002;2022-10-03T07:05:00;10.60;99.90
20384;DHT22;46458;50.966;7.002;2022-10-03T07:08:08;10.60;99.90
20384;DHT22;46458;50.966;7.002;2022-10-03T07:10:52;10.70;99.90
20384;DHT22;46458;50.966;7.002;2022-10-03T07:13:50;10.70;99.90
20384;DHT22;46458;50.966;7.002;2022-10-03T07:16:53;10.80;99.90
20384;DHT22;46458;50.966;7.002;2022-10-03T07:25:57;10.80;99.90
20384;DHT22;46458;50.966;7.002;2022-10-03T07:31:40;10.90;99.90
20384;DHT22;46458;50.966;7.002;2022-10-03T07:37:33;11.00;99.90
20384;DHT22;46458;50.966;7.002;2022-10-03T07:43:37;10.80;99.90
20384;DHT22;46458;50.966;7.002;2022-10-03T07:46:32;11.50;99.90
20384;DHT22;46458;50.966;7.002;2022-10-03T07:49:16;11.70;99.90
20384;DHT22;46458;50.966;7.002;2022-10-03T07:52:05;11.80;99.90
20384;DHT22;46458;50.966;7.002;2022-10-03T07:54:57;12.30;99.90
20384;DHT22;46458;50.966;7.002;2022-10-03T07:57:54;12.40;99.90
20384;DHT22;46458;50.966;7.002;2022-10-03T08:00:39;12.60;99.90
20384;DHT22;46458;50.966;7.002;2022-10-03T08:03:49;13.20;99.90
20384;DHT22;46458;50.966;7.002;2022-10-03T08:06:33;12.80;99.90
20384;DHT22;46458;50.966;7.002;2022-10-03T08:12:42;13.40;99.90
20384;DHT22;46458;50.966;7.002;2022-10-03T08:15:22;13.50;99.90
20384;DHT22;46458;50.966;7.002;2022-10-03T08:18:19;15.10;99.90
20384;DHT22;46458;50.966;7.002;2022-10-03T08:20:54;14.90;99.90
20384;DHT22;46458;50.966;7.002;2022-10-03T08:26:30;14.60;99.90
20384;DHT22;46458;50.966;7.002;2022-10-03T08:29:16;14.70;99.90
20384;DHT22;46458;50.966;7.002;2022-10-03T08:38:14;14.90;99.90
20384;DHT22;46458;50.966;7.002;2022-10-03T08:41:16;15.00;99.90
20384;DHT22;46458;50.966;7.002;2022-10-03T08:56:16;15.30;99.90
20384;DHT22;46458;50.966;7.002;2022-10-03T09:08:35;16.30;99.90
20384;DHT22;46458;50.966;7.002;2022-10-03T09:14:43;15.60;99.90
20384;DHT22;46458;50.966;7.002;2022-10-03T09:27:14;16.50;99.90
20384;DHT22;46458;50.966;7.002;2022-10-03T09:30:13;16.80;99.90
20384;DHT22;46458;50.966;7.002;2022-10-03T09:35:57;18.50;99.90
20384;DHT22;46458;50.966;7.002;2022-10-03T09:38:52;18.10;99.90
20384;DHT22;46458;50.966;7.002;2022-10-03T09:41:57;17.70;99.90
20384;DHT22;46458;50.966;7.002;2022-10-03T09:51:21;19.10;99.90
20384;DHT22;46458;50.966;7.002;2022-10-03T09:54:24;19.50;99.90
20384;DHT22;46458;50.966;7.002;2022-10-03T09:57:25;26.20;99.90
20384;DHT22;46458;50.966;7.002;2022-10-03T10:00:14;26.10;99.90
20384;DHT22;46458;50.966;7.002;2022-10-03T10:18:26;20.90;99.90
20384;DHT22;46458;50.966;7.002;2022-10-03T10:30:12;32.10;97.80
20384;DHT22;46458;50.966;7.002;2022-10-03T10:45:26;32.00;91.10
20384;DHT22;46458;50.966;7.002;2022-10-03T10:54:39;26.60;96.10
20384;DHT22;46458;50.966;7.002;2022-10-03T11:00:38;22.30;99.90
20384;DHT22;46458;50.966;7.002;2022-10-03T11:03:56;20.90;99.90
20384;DHT22;46458;50.966;7.002;2022-10-03T11:07:09;20.20;99.90
20384;DHT22;46458;50.966;7.002;2022-10-03T11:09:50;19.90;99.90
20384;DHT22;46458;50.966;7.002;2022-10-03T11:12:56;19.70;99.90
20384;DHT22;46458;50.966;7.002;2022-10-03T11:16:13;19.10;99.90
20384;DHT22;46458;50.966;7.002;2022-10-03T11:25:35;19.40;99.90
20384;DHT22;46458;50.966;7.002;2022-10-03T11:34:56;19.00;99.90
20384;DHT22;46458;50.966;7.002;2022-10-03T11:37:42;19.00;99.90
20384;DHT22;46458;50.966;7.002;2022-10-03T11:40:26;19.10;99.90
20384;DHT22;46458;50.966;7.002;2022-10-03T11:43:24;20.20;99.90
20384;DHT22;46458;50.966;7.002;2022-10-03T11:46:21;19.90;99.90
20384;DHT22;46458;50.966;7.002;2022-10-03T11:48:56;20.20;99.90
20384;DHT22;46458;50.966;7.002;2022-10-03T11:51:35;19.80;99.90
20384;DHT22;46458;50.966;7.002;2022-10-03T11:54:17;20.20;99.90
20384;DHT22;46458;50.966;7.002;2022-10-03T11:56:49;21.10;99.90
20384;DHT22;46458;50.966;7.002;2022-10-03T11:59:50;21.70;99.90
20384;DHT22;46458;50.966;7.002;2022-10-03T12:02:44;21.00;99.90
20384;DHT22;46458;50.966;7.002;2022-10-03T12:05:26;20.00;99.90
20384;DHT22;46458;50.966;7.002;2022-10-03T12:08:09;19.60;99.90
20384;DHT22;46458;50.966;7.002;2022-10-03T12:11:03;19.20;99.90
20384;DHT22;46458;50.966;7.002;2022-10-03T12:13:39;18.90;99.90
20384;DHT22;46458;50.966;7.002;2022-10-03T12:16:16;18.60;99.90
20384;DHT22;46458;50.966;7.002;2022-10-03T12:18:53;18.50;99.90
20384;DHT22;46458;50.966;7.002;2022-10-03T12:21:32;18.20;99.90
20384;DHT22;46458;50.966;7.002;2022-10-03T12:24:28;18.20;99.90
20384;DHT22;46458;50.966;7.002;2022-10-03T12:27:05;17.70;99.90
20384;DHT22;46458;50.966;7.002;2022-10-03T12:29:40;17.80;99.90
20384;DHT22;46458;50.966;7.002;2022-10-03T12:32:16;17.80;99.90
20384;DHT22;46458;50.966;7.002;2022-10-03T12:34:52;17.70;99.90
20384;DHT22;46458;50.966;7.002;2022-10-03T12:37:48;17.70;99.90
20384;DHT22;46458;50.966;7.002;2022-10-03T12:40:27;17.50;99.90
20384;DHT22;46458;50.966;7.002;2022-10-03T12:43:08;17.50;99.90
20384;DHT22;46458;50.966;7.002;2022-10-03T12:45:48;17.60;99.90
20384;DHT22;46458;50.966;7.002;2022-10-03T12:51:24;17.80;99.90
20384;DHT22;46458;50.966;7.002;2022-10-03T12:54:06;17.60;99.90
20384;DHT22;46458;50.966;7.002;2022-10-03T12:56:42;17.60;99.90
20384;DHT22;46458;50.966;7.002;2022-10-03T12:59:17;17.80;99.90
20384;DHT22;46458;50.966;7.002;2022-10-03T13:04:53;17.80;99.90
20384;DHT22;46458;50.966;7.002;2022-10-03T13:07:26;17.80;99.90
20384;DHT22;46458;50.966;7.002;2022-10-03T13:10:09;17.90;99.90
20384;DHT22;46458;50.966;7.002;2022-10-03T13:12:44;17.80;99.90
20384;DHT22;46458;50.966;7.002;2022-10-03T13:15:45;18.30;99.90
20384;DHT22;46458;50.966;7.002;2022-10-03T13:18:35;18.40;99.90
20384;DHT22;46458;50.966;7.002;2022-10-03T13:21:12;18.10;99.90
20384;DHT22;46458;50.966;7.002;2022-10-03T13:23:48;18.00;99.90
20384;DHT22;46458;50.966;7.002;2022-10-03T13:26:25;17.90;99.90
20384;DHT22;46458;50.966;7.002;2022-10-03T13:29:24;18.10;99.90
20384;DHT22;46458;50.966;7.002;2022-10-03T13:32:07;18.50;99.90
20384;DHT22;46458;50.966;7.002;2022-10-03T13:34:50;18.60;99.90
20384;DHT22;46458;50.966;7.002;2022-10-03T13:37:28;18.60;99.90
20384;DHT22;46458;50.966;7.002;2022-10-03T13:40:05;18.50;99.90
20384;DHT22;46458;50.966;7.002;2022-10-03T13:42:40;18.60;99.90
20384;DHT22;46458;50.966;7.002;2022-10-03T13:45:18;18.90;99.90
20384;DHT22;46458;50.966;7.002;2022-10-03T13:47:51;18.90;99.90
20384;DHT22;46458;50.966;7.002;2022-10-03T13:50:26;18.80;99.90
20384;DHT22;46458;50.966;7.002;2022-10-03T13:52:59;18.30;99.90
20384;DHT22;46458;50.966;7.002;2022-10-03T13:55:43;18.20;99.90
20384;DHT22;46458;50.966;7.002;2022-10-03T13:58:26;17.90;99.90
20384;DHT22;46458;50.966;7.002;2022-10-03T14:01:30;17.70;99.90
20384;DHT22;46458;50.966;7.002;2022-10-03T14:04:25;17.70;99.90
20384;DHT22;46458;50.966;7.002;2022-10-03T14:07:08;17.90;99.90
20384;DHT22;46458;50.966;7.002;2022-10-03T14:12:38;17.30;99.90
20384;DHT22;46458;50.966;7.002;2022-10-03T14:15:29;17.40;99.90
20384;DHT22;46458;50.966;7.002;2022-10-03T14:18:11;17.50;99.90
20384;DHT22;46458;50.966;7.002;2022-10-03T14:23:46;17.40;99.90
20384;DHT22;46458;50.966;7.002;2022-10-03T14:26:23;17.10;99.90
20384;DHT22;46458;50.966;7.002;2022-10-03T14:28:59;17.60;99.90
20384;DHT22;46458;50.966;7.002;2022-10-03T14:31:40;17.70;99.90
20384;DHT22;46458;50.966;7.002;2022-10-03T14:34:19;17.40;99.90
20384;DHT22;46458;50.966;7.002;2022-10-03T14:36:55;17.40;99.90
20384;DHT22;46458;50.966;7.002;2022-10-03T14:39:33;17.30;99.90
20384;DHT22;46458;50.966;7.002;2022-10-03T14:42:29;17.30;99.90
20384;DHT22;46458;50.966;7.002;2022-10-03T14:45:01;17.60;99.90
20384;DHT22;46458;50.966;7.002;2022-10-03T14:47:38;17.60;99.90
20384;DHT22;46458;50.966;7.002;2022-10-03T14:50:14;17.40;99.90
20384;DHT22;46458;50.966;7.002;2022-10-03T14:52:47;17.40;99.90
20384;DHT22;46458;50.966;7.002;2022-10-03T14:55:20;17.50;99.90
20384;DHT22;46458;50.966;7.002;2022-10-03T14:57:55;17.50;99.90
20384;DHT22;46458;50.966;7.002;2022-10-03T15:00:36;17.70;99.90
20384;DHT22;46458;50.966;7.002;2022-10-03T15:03:35;17.80;99.90
20384;DHT22;46458;50.966;7.002;2022-10-03T15:06:34;17.70;99.90
20384;DHT22;46458;50.966;7.002;2022-10-03T15:09:08;17.60;99.90
20384;DHT22;46458;50.966;7.002;2022-10-03T15:11:46;17.70;99.90
20384;DHT22;46458;50.966;7.002;2022-10-03T15:14:17;18.10;99.90
20384;DHT22;46458;50.966;7.002;2022-10-03T15:16:53;17.30;99.90
20384;DHT22;46458;50.966;7.002;2022-10-03T15:19:28;17.20;99.90
20384;DHT22;46458;50.966;7.002;2022-10-03T15:22:22;17.40;99.90
20384;DHT22;46458;50.966;7.002;2022-10-03T15:24:56;17.10;99.90
20384;DHT22;46458;50.966;7.002;2022-10-03T15:27:27;17.00;99.90
20384;DHT22;46458;50.966;7.002;2022-10-03T15:29:58;17.00;99.90
20384;DHT22;46458;50.966;7.002;2022-10-03T15:32:34;17.10;99.90
20384;DHT22;46458;50.966;7.002;2022-10-03T15:35:13;17.00;99.90
20384;DHT22;46458;50.966;7.002;2022-10-03T15:37:43;16.90;99.90
20384;DHT22;46458;50.966;7.002;2022-10-03T15:40:21;17.00;99.90
20384;DHT22;46458;50.966;7.002;2022-10-03T15:43:01;17.00;99.90
20384;DHT22;46458;50.966;7.002;2022-10-03T15:45:34;17.00;99.90
20384;DHT22;46458;50.966;7.002;2022-10-03T15:48:05;16.90;99.90
20384;DHT22;46458;50.966;7.002;2022-10-03T15:50:49;17.00;99.90
20384;DHT22;46458;50.966;7.002;2022-10-03T15:53:23;16.90;99.90
20384;DHT22;46458;50.966;7.002;2022-10-03T15:55:55;17.10;99.90
20384;DHT22;46458;50.966;7.002;2022-10-03T15:58:28;16.80;99.90
20384;DHT22;46458;50.966;7.002;2022-10-03T16:01:05;17.20;99.90
20384;DHT22;46458;50.966;7.002;2022-10-03T16:03:41;16.70;99.90
20384;DHT22;46458;50.966;7.002;2022-10-03T16:06:19;16.60;99.90
20384;DHT22;46458;50.966;7.002;2022-10-03T16:08:57;16.70;99.90
20384;DHT22;46458;50.966;7.002;2022-10-03T16:11:32;16.90;99.90
20384;DHT22;46458;50.966;7.002;2022-10-03T16:14:15;16.70;99.90
20384;DHT22;46458;50.966;7.002;2022-10-03T16:16:49;16.60;99.90
20384;DHT22;46458;50.966;7.002;2022-10-03T16:19:31;16.70;99.90
20384;DHT22;46458;50.966;7.002;2022-10-03T16:22:18;16.70;99.90
20384;DHT22;46458;50.966;7.002;2022-10-03T16:25:00;16.50;99.90
20384;DHT22;46458;50.966;7.002;2022-10-03T16:27:32;16.40;99.90
20384;DHT22;46458;50.966;7.002;2022-10-03T16:30:19;16.30;99.90
20384;DHT22;46458;50.966;7.002;2022-10-03T16:32:59;16.20;99.90
20384;DHT22;46458;50.966;7.002;2022-10-03T16:35:34;16.30;99.90
20384;DHT22;46458;50.966;7.002;2022-10-03T16:38:14;16.30;99.90
20384;DHT22;46458;50.966;7.002;2022-10-03T16:40:52;16.00;99.90
20384;DHT22;46458;50.966;7.002;2022-10-03T16:43:22;16.00;99.90
20384;DHT22;46458;50.966;7.002;2022-10-03T16:45:52;16.10;99.90
20384;DHT22;46458;50.966;7.002;2022-10-03T16:48:26;16.00;99.90
20384;DHT22;46458;50.966;7.002;2022-10-03T16:51:16;15.90;99.90
20384;DHT22;46458;50.966;7.002;2022-10-03T16:53:51;15.40;99.90
20384;DHT22;46458;50.966;7.002;2022-10-03T16:56:23;15.80;99.90
20384;DHT22;46458;50.966;7.002;2022-10-03T16:59:03;15.80;99.90
20384;DHT22;46458;50.966;7.002;2022-10-03T17:01:41;15.60;99.90
20384;DHT22;46458;50.966;7.002;2022-10-03T17:04:18;15.60;99.90
20384;DHT22;46458;50.966;7.002;2022-10-03T17:06:49;15.50;99.90
20384;DHT22;46458;50.966;7.002;2022-10-03T17:09:25;15.40;99.90
20384;DHT22;46458;50.966;7.002;2022-10-03T17:11:57;15.30;99.90
20384;DHT22;46458;50.966;7.002;2022-10-03T17:14:32;15.50;99.90
20384;DHT22;46458;50.966;7.002;2022-10-03T17:17:06;15.20;99.90
20384;DHT22;46458;50.966;7.002;2022-10-03T17:19:41;15.10;99.90
20384;DHT22;46458;50.966;7.002;2022-10-03T17:22:15;15.00;99.90
20384;DHT22;46458;50.966;7.002;2022-10-03T17:24:53;15.00;99.90
20384;DHT22;46458;50.966;7.002;2022-10-03T17:27:30;15.00;99.90
20384;DHT22;46458;50.966;7.002;2022-10-03T17:30:03;14.80;99.90
20384;DHT22;46458;50.966;7.002;2022-10-03T17:32:36;14.80;99.90
20384;DHT22;46458;50.966;7.002;2022-10-03T17:35:12;15.10;99.90
20384;DHT22;46458;50.966;7.002;2022-10-03T17:38:10;14.80;99.90
20384;DHT22;46458;50.966;7.002;2022-10-03T17:41:01;14.70;99.90
20384;DHT22;46458;50.966;7.002;2022-10-03T17:43:39;14.60;99.90
20384;DHT22;46458;50.966;7.002;2022-10-03T17:46:17;14.60;99.90
20384;DHT22;46458;50.966;7.002;2022-10-03T17:48:55;14.50;99.90
20384;DHT22;46458;50.966;7.002;2022-10-03T17:51:33;14.60;99.90
20384;DHT22;46458;50.966;7.002;2022-10-03T17:54:08;14.50;99.90
20384;DHT22;46458;50.966;7.002;2022-10-03T17:56:44;14.30;99.90
20384;DHT22;46458;50.966;7.002;2022-10-03T17:59:20;14.50;99.90
20384;DHT22;46458;50.966;7.002;2022-10-03T18:01:56;14.60;99.90
20384;DHT22;46458;50.966;7.002;2022-10-03T18:04:29;14.40;99.90
20384;DHT22;46458;50.966;7.002;2022-10-03T18:07:01;14.40;99.90
20384;DHT22;46458;50.966;7.002;2022-10-03T18:09:36;14.60;99.90
20384;DHT22;46458;50.966;7.002;2022-10-03T18:12:16;14.50;99.90
20384;DHT22;46458;50.966;7.002;2022-10-03T18:15:11;14.50;99.90
20384;DHT22;46458;50.966;7.002;2022-10-03T18:17:54;14.50;99.90
20384;DHT22;46458;50.966;7.002;2022-10-03T18:20:45;14.50;99.90
20384;DHT22;46458;50.966;7.002;2022-10-03T18:23:20;14.40;99.90
20384;DHT22;46458;50.966;7.002;2022-10-03T18:25:59;14.50;99.90
20384;DHT22;46458;50.966;7.002;2022-10-03T18:28:35;14.40;99.90
20384;DHT22;46458;50.966;7.002;2022-10-03T18:31:09;14.30;99.90
20384;DHT22;46458;50.966;7.002;2022-10-03T18:33:44;14.60;99.90
20384;DHT22;46458;50.966;7.002;2022-10-03T18:36:17;14.40;99.90
20384;DHT22;46458;50.966;7.002;2022-10-03T18:38:51;14.60;99.90
20384;DHT22;46458;50.966;7.002;2022-10-03T18:41:22;14.50;99.90
20384;DHT22;46458;50.966;7.002;2022-10-03T18:43:56;14.40;99.90
20384;DHT22;46458;50.966;7.002;2022-10-03T18:46:34;14.20;99.90
20384;DHT22;46458;50.966;7.002;2022-10-03T18:49:14;14.20;99.90
20384;DHT22;46458;50.966;7.002;2022-10-03T18:51:55;14.00;99.90
20384;DHT22;46458;50.966;7.002;2022-10-03T18:54:35;14.10;99.90
20384;DHT22;46458;50.966;7.002;2022-10-03T18:57:10;14.20;99.90
20384;DHT22;46458;50.966;7.002;2022-10-03T18:59:51;14.00;99.90
20384;DHT22;46458;50.966;7.002;2022-10-03T19:02:25;14.10;99.90
20384;DHT22;46458;50.966;7.002;2022-10-03T19:05:04;13.80;99.90
20384;DHT22;46458;50.966;7.002;2022-10-03T19:07:41;13.90;99.90
20384;DHT22;46458;50.966;7.002;2022-10-03T19:10:29;14.00;99.90
20384;DHT22;46458;50.966;7.002;2022-10-03T19:13:13;13.70;99.90
20384;DHT22;46458;50.966;7.002;2022-10-03T19:16:10;13.40;99.90
20384;DHT22;46458;50.966;7.002;2022-10-03T19:18:50;13.60;99.90
20384;DHT22;46458;50.966;7.002;2022-10-03T19:21:20;13.70;99.90
20384;DHT22;46458;50.966;7.002;2022-10-03T19:23:52;13.70;99.90
20384;DHT22;46458;50.966;7.002;2022-10-03T19:26:27;13.70;99.90
20384;DHT22;46458;50.966;7.002;2022-10-03T19:28:59;13.70;99.90
20384;DHT22;46458;50.966;7.002;2022-10-03T19:31:37;13.80;99.90
20384;DHT22;46458;50.966;7.002;2022-10-03T19:34:17;14.00;99.90
20384;DHT22;46458;50.966;7.002;2022-10-03T19:36:49;13.60;99.90
20384;DHT22;46458;50.966;7.002;2022-10-03T19:39:20;13.70;99.90
20384;DHT22;46458;50.966;7.002;2022-10-03T19:41:52;13.60;99.90
20384;DHT22;46458;50.966;7.002;2022-10-03T19:44:24;13.50;99.90
20384;DHT22;46458;50.966;7.002;2022-10-03T19:47:03;13.80;99.90
20384;DHT22;46458;50.966;7.002;2022-10-03T19:49:51;13.40;99.90
20384;DHT22;46458;50.966;7.002;2022-10-03T19:52:24;13.60;99.90
20384;DHT22;46458;50.966;7.002;2022-10-03T19:55:08;13.40;99.90
20384;DHT22;46458;50.966;7.002;2022-10-03T19:57:42;13.40;99.90
20384;DHT22;46458;50.966;7.002;2022-10-03T20:00:23;13.40;99.90
20384;DHT22;46458;50.966;7.002;2022-10-03T20:03:05;13.40;99.90
20384;DHT22;46458;50.966;7.002;2022-10-03T20:05:59;13.50;99.90
20384;DHT22;46458;50.966;7.002;2022-10-03T20:08:34;13.30;99.90
20384;DHT22;46458;50.966;7.002;2022-10-03T20:11:21;13.40;99.90
20384;DHT22;46458;50.966;7.002;2022-10-03T20:13:54;13.30;99.90
20384;DHT22;46458;50.966;7.002;2022-10-03T20:16:26;13.40;99.90
20384;DHT22;46458;50.966;7.002;2022-10-03T20:19:07;13.80;99.90
20384;DHT22;46458;50.966;7.002;2022-10-03T20:21:37;13.30;99.90
20384;DHT22;46458;50.966;7.002;2022-10-03T20:24:17;13.10;99.90
20384;DHT22;46458;50.966;7.002;2022-10-03T20:26:56;13.50;99.90
20384;DHT22;46458;50.966;7.002;2022-10-03T20:29:30;13.40;99.90
20384;DHT22;46458;50.966;7.002;2022-10-03T20:32:03;13.20;99.90
20384;DHT22;46458;50.966;7.002;2022-10-03T20:34:38;13.40;99.90
20384;DHT22;46458;50.966;7.002;2022-10-03T20:37:21;13.30;99.90
20384;DHT22;46458;50.966;7.002;2022-10-03T20:40:02;13.10;99.90
20384;DHT22;46458;50.966;7.002;2022-10-03T20:42:36;12.90;99.90